Hyde Park, UT (84318)

9:34 PM MDT on September 02, 2014 (GMT -0600)
MesoWest LOGAN CAMPBELL HDQ UT US CAMPBELL | Change Station
CLOSE
Current Station
Personal Weather Station
Location: Logan, UT
Elevation: 4455 ft
Nearby Weather Stations

Elev 4455 ft 41.77 °N, 111.86 °W | Updated 34 minutes ago

Clear
Clear
71 °F
Feels Like 77 °F
N
2
Wind Variable Wind from SSE
Gusts 0.0 mph

Today
High -- | Low -- °F
--% Chance of Precip.
Yesterday
High -- | Low -- °F
Precip. -- in
6:54 AM 7:58 PM
First Quarter, 58% visible
Pressure 29.73 in
Visibility 10.0 miles
Clouds Clear
Heat Index 77 °F
Dew Point 46 °F
Humidity 42%
Rainfall -999.00 in
Snow Depth 0 in , 0 in
UV 0 out of 12
Pollen 7.50 out of 12
Ozone Good
PM2.5 Good
Flu Activity Not available.
METAR KLGU 030151Z AUTO 00000KT 10SM CLR 26/07 A2985 RMK AO2 SLP066 T02560072

More Conditions Fewer Conditions

Pressure 29.73 in
Visibility 10.0 miles
Clouds Clear
Heat Index 77 °F
Dew Point 46 °F
Humidity 42%
Rainfall -999.00 in
Snow Depth 0 in , 0 in
UV 0 out of 12
Pollen 7.50 out of 12
Ozone Good
PM2.5 Good
Flu Activity Not available.
METAR KLGU 030151Z AUTO 00000KT 10SM CLR 26/07 A2985 RMK AO2 SLP066 T02560072

More Conditions Fewer Conditions

10-Day Weather Forecast

Almanac

Astronomy

Sep. 02, 2014 Rise Set
Actual Time 6:54 AM MDT 7:58 PM MDT
Civil Twilight 6:25 AM MDT 8:27 PM MDT
Nautical Twilight 5:51 AM MDT 9:01 PM MDT
Astronomical Twilight 5:15 AM MDT 9:36 PM MDT
Moon 2:48 PM MDT (9/2) No Moon Set
Length of Visible Light 14h 01m
Length of Day
13h 04m
Tomorrow will be 2m 43s shorter.
First Quarter, 58% of the Moon is Illuminated
Today
First Quarter
Sep 8
Full
Sep 15
Last Quarter
Sep 24
New
Oct 1
First Quarter

Today's Extremes

State Highs State Lows

Community

WunderPhotos

Upload Photos

1,749,867 photos uploaded!

WunderBlogs® & News

Nearby

Air Quality

  Air Quality AQ Index Pollutant
Yesterday Good
OZONE
Yesterday Good
PM2.5
Current Good
OZONE
Current Good
PM2.5

Snow Depth

Station Depth Elevation
Tony Grove Lake 0 in 8400 ft
Temple Fork 0 in 7406 ft
Ben Lomond Trail 1 in 6000 ft
Ben Lomond Peak 0 in 8000 ft
Horse Ridge 0 in 8160 ft

Earthquake Activity

City Distance Mag. Time & Date
Driggs, Idaho 143 miles 3.8 2:09 PM MDT
2014-08-30
Minimum magnitude displayed is 2.5.

Coastal Water Temperatures

Place Temperature
No Stations Reporting

Nearby Weather Stations